Aguanga, California
Current Conditions -  °F | °C
As of 7:15 PM on Friday 21 Nov 2014 (Local Time) from KF70 Reporting Station
Clear Clear  
Wind Chill: 12°   Ceiling: Unl
Heat Index: 12°   Visibility: 10mi
Dew Point:   Wind: 6mph
Humidity: 77%   Direction: 110°ESE
Pressure: 30.03"   Gusts: NA
Location:  33.44°N, 116.87°W
Report Text: KF70 220315Z AUTO 11005KT 10SM CLR 12/08 A3003 RMK AO1
Loading
Personal Weather Stations






























Interactive Weather Map New forecast layout! Learn more

10-Day Weather Forecast

Advertisements
Track Severe Weather on mobile